Time;durP1;ratioP1;P1;durP2;ratioP2;P2;SDS_P1;SDS_P2;PMS_P1;PMS_P2;Temp;Humidity;BMP_temperature;BMP_pressure;BME280_temperature;BME280_humidity;BME280_pressure;Samples;Min_cycle;Max_cycle;Signal;HPM_P1;HPM_P2
2022/05/02 00:00:09;;;;;;;8.27;5.80;;;6.20;99.90;;;;;;5089052;28;20032;-68
2022/05/02 00:02:36;;;;;;;6.60;5.68;;;6.10;99.90;;;;;;5068398;28;20500;-68
2022/05/02 00:05:03;;;;;;;10.15;6.47;;;6.10;99.90;;;;;;5068810;28;20024;-68
2022/05/02 00:07:29;;;;;;;7.32;5.85;;;6.00;99.90;;;;;;5051873;28;20476;-68
2022/05/02 00:09:56;;;;;;;7.97;6.10;;;6.00;99.90;;;;;;5088090;28;20035;-68
2022/05/02 00:12:22;;;;;;;13.65;6.15;;;6.00;99.90;;;;;;5053105;28;20048;-68
2022/05/02 00:14:47;;;;;;;11.48;6.95;;;6.00;99.90;;;;;;5089014;28;20111;-68
2022/05/02 00:17:13;;;;;;;7.55;6.63;;;6.00;99.90;;;;;;5070847;28;20110;-68
2022/05/02 00:19:39;;;;;;;8.10;6.82;;;6.00;99.90;;;;;;5068016;28;20032;-68
2022/05/02 00:22:04;;;;;;;9.35;7.20;;;5.90;99.90;;;;;;5052280;28;20080;-68
2022/05/02 00:24:31;;;;;;;8.45;6.72;;;5.90;99.90;;;;;;5088566;28;20546;-67
2022/05/02 00:26:57;;;;;;;8.25;6.70;;;5.90;99.90;;;;;;5069587;28;20974;-68
2022/05/02 00:29:23;;;;;;;9.68;6.50;;;5.90;99.90;;;;;;5090196;28;20085;-68
2022/05/02 00:31:48;;;;;;;8.27;7.25;;;5.90;99.90;;;;;;5091234;28;20036;-68
2022/05/02 00:34:14;;;;;;;10.07;7.25;;;5.90;99.90;;;;;;5090121;28;20049;-68
2022/05/02 00:36:40;;;;;;;11.00;6.85;;;5.80;99.90;;;;;;5070905;28;20352;-68
2022/05/02 00:39:06;;;;;;;7.75;6.15;;;5.90;99.90;;;;;;5073415;28;20062;-68
2022/05/02 00:41:32;;;;;;;8.02;6.63;;;5.90;99.90;;;;;;5088073;28;20044;-68
2022/05/02 00:43:58;;;;;;;9.15;7.15;;;5.90;99.90;;;;;;5093108;28;20063;-68
2022/05/02 00:46:26;;;;;;;9.25;6.97;;;5.90;99.90;;;;;;5091837;28;20048;-68
2022/05/02 00:48:52;;;;;;;9.88;7.25;;;5.80;99.90;;;;;;5057229;28;20048;-68
2022/05/02 00:51:18;;;;;;;10.20;7.00;;;5.80;99.90;;;;;;5071616;28;20044;-68
2022/05/02 00:53:49;;;;;;;8.95;6.78;;;5.90;99.90;;;;;;5073331;28;20124;-68
2022/05/02 00:56:23;;;;;;;9.88;7.78;;;5.70;99.90;;;;;;5072918;28;20623;-68
2022/05/02 00:58:54;;;;;;;9.48;6.85;;;5.80;99.90;;;;;;5090061;28;20429;-68
2022/05/02 01:01:20;;;;;;;11.30;7.07;;;5.70;99.90;;;;;;5092088;28;20825;-68
2022/05/02 01:03:45;;;;;;;8.95;6.95;;;5.70;99.90;;;;;;5072850;28;20044;-68
2022/05/02 01:08:55;;;;;;;8.80;7.93;;;5.70;99.90;;;;;;5089577;28;20055;-68
2022/05/02 01:11:21;;;;;;;10.20;7.13;;;5.60;99.90;;;;;;5071809;28;20294;-68
2022/05/02 01:13:48;;;;;;;14.02;8.02;;;5.60;99.90;;;;;;5071319;28;20125;-68
2022/05/02 01:16:18;;;;;;;8.93;7.80;;;5.70;99.90;;;;;;5073283;28;20503;-67
2022/05/02 01:18:48;;;;;;;8.70;7.38;;;5.60;99.90;;;;;;5073019;28;20535;-67
2022/05/02 01:21:25;;;;;;;8.98;8.07;;;5.60;99.90;;;;;;5070444;28;20043;-67
2022/05/02 01:23:53;;;;;;;10.60;7.63;;;5.60;99.90;;;;;;5090621;28;20123;-67
2022/05/02 01:26:19;;;;;;;9.88;7.55;;;5.50;99.90;;;;;;5069362;28;20143;-67
2022/05/02 01:28:50;;;;;;;8.95;7.85;;;5.50;99.90;;;;;;5072388;28;20511;-68
2022/05/02 01:31:18;;;;;;;9.90;7.70;;;5.50;99.90;;;;;;5089637;28;20044;-68
2022/05/02 01:33:44;;;;;;;11.63;8.65;;;5.50;99.90;;;;;;5071079;28;20036;-68
2022/05/02 01:36:10;;;;;;;10.02;8.40;;;5.50;99.90;;;;;;5091500;28;20467;-68
2022/05/02 01:38:37;;;;;;;8.18;7.32;;;5.30;99.90;;;;;;5090620;28;20043;-68
2022/05/02 01:41:06;;;;;;;12.68;8.68;;;5.40;99.90;;;;;;5090462;28;20109;-68
2022/05/02 01:43:33;;;;;;;12.15;7.82;;;5.40;99.90;;;;;;5073431;28;20043;-68
2022/05/02 01:46:00;;;;;;;10.45;8.48;;;5.40;99.90;;;;;;5072038;28;20032;-68
2022/05/02 01:48:27;;;;;;;9.77;8.40;;;5.30;99.90;;;;;;5071269;28;20036;-68
2022/05/02 01:50:53;;;;;;;11.25;8.63;;;5.30;99.90;;;;;;5072776;28;20115;-67
2022/05/02 01:53:19;;;;;;;11.55;8.70;;;5.30;99.90;;;;;;5090105;28;20131;-67
2022/05/02 01:55:45;;;;;;;9.93;7.80;;;5.30;99.90;;;;;;5087305;28;20039;-67
2022/05/02 01:58:11;;;;;;;10.18;7.93;;;5.20;99.90;;;;;;5071363;28;20044;-67
2022/05/02 02:00:37;;;;;;;10.60;8.88;;;5.20;99.90;;;;;;5070502;28;20055;-67
2022/05/02 02:03:03;;;;;;;9.02;7.78;;;5.10;99.90;;;;;;5071147;28;20075;-67
2022/05/02 02:08:13;;;;;;;11.77;7.63;;;5.00;99.90;;;;;;5069783;28;20127;-72
2022/05/02 02:10:39;;;;;;;11.55;8.65;;;5.00;99.90;;;;;;5091276;28;20365;-68
2022/05/02 02:13:05;;;;;;;10.55;8.02;;;5.00;99.90;;;;;;5071235;28;20051;-67
2022/05/02 02:15:31;;;;;;;11.10;7.70;;;4.90;99.90;;;;;;5070749;28;20036;-67
2022/05/02 02:17:56;;;;;;;10.23;7.65;;;4.80;99.90;;;;;;5085511;28;20082;-67
2022/05/02 02:20:22;;;;;;;12.57;8.20;;;4.80;99.90;;;;;;5088805;28;20031;-67
2022/05/02 02:22:48;;;;;;;11.13;8.35;;;4.80;99.90;;;;;;5071315;28;20115;-68
2022/05/02 02:25:14;;;;;;;11.27;8.35;;;4.70;99.90;;;;;;5069589;28;20050;-68
2022/05/02 02:27:39;;;;;;;10.02;8.45;;;4.70;99.90;;;;;;5069399;28;20097;-68
2022/05/02 02:30:06;;;;;;;11.15;9.82;;;4.70;99.90;;;;;;5036722;28;20427;-68
2022/05/02 02:32:32;;;;;;;10.15;8.20;;;4.60;99.90;;;;;;5071898;28;20051;-68
2022/05/02 02:34:58;;;;;;;11.82;8.95;;;4.60;99.90;;;;;;5069996;28;20054;-68
2022/05/02 02:37:24;;;;;;;10.60;8.35;;;4.60;99.90;;;;;;5071646;28;20028;-67
2022/05/02 02:39:50;;;;;;;10.85;9.45;;;4.60;99.90;;;;;;5070360;28;20035;-67
2022/05/02 02:42:16;;;;;;;13.20;9.02;;;4.50;99.90;;;;;;5087355;28;20040;-67
2022/05/02 02:44:42;;;;;;;10.77;9.68;;;4.60;99.90;;;;;;5070908;28;20048;-67
2022/05/02 02:47:08;;;;;;;12.32;9.75;;;4.60;99.90;;;;;;5071088;28;20372;-67
2022/05/02 02:49:33;;;;;;;11.52;9.20;;;4.50;99.90;;;;;;5086629;28;20052;-67
2022/05/02 02:51:59;;;;;;;11.93;8.68;;;4.50;99.90;;;;;;5054060;28;20528;-67
2022/05/02 02:54:25;;;;;;;10.95;9.38;;;4.40;99.90;;;;;;5088187;28;20056;-67
2022/05/02 02:56:50;;;;;;;11.52;8.77;;;4.40;99.90;;;;;;5071015;28;20048;-68
2022/05/02 02:59:16;;;;;;;13.25;10.13;;;4.40;99.90;;;;;;5088892;28;20048;-68
2022/05/02 03:01:42;;;;;;;12.27;9.70;;;4.40;99.90;;;;;;5087840;28;20130;-67
2022/05/02 03:06:53;;;;;;;11.85;10.18;;;4.30;99.90;;;;;;5070126;28;20132;-68
2022/05/02 03:09:19;;;;;;;13.43;10.90;;;4.30;99.90;;;;;;5067086;28;20664;-67
2022/05/02 03:11:45;;;;;;;12.80;11.25;;;4.30;99.90;;;;;;5070500;28;20051;-68
2022/05/02 03:14:11;;;;;;;14.07;10.65;;;4.30;99.90;;;;;;5070702;28;20066;-68
2022/05/02 03:16:36;;;;;;;13.65;11.50;;;4.40;99.90;;;;;;5087764;28;20028;-68
2022/05/02 03:19:02;;;;;;;15.35;11.27;;;4.30;99.90;;;;;;5088850;28;20051;-68
2022/05/02 03:21:28;;;;;;;15.45;12.80;;;4.20;99.90;;;;;;5089347;28;20043;-68
2022/05/02 03:23:53;;;;;;;15.15;12.02;;;4.40;99.90;;;;;;5070602;28;20058;-68
2022/05/02 03:26:19;;;;;;;16.85;12.30;;;4.40;99.90;;;;;;5071232;28;20387;-68
2022/05/02 03:28:45;;;;;;;16.13;11.98;;;4.40;99.90;;;;;;5070157;28;20087;-68
2022/05/02 03:31:10;;;;;;;16.05;12.13;;;4.40;99.90;;;;;;5068492;28;20560;-69
2022/05/02 03:33:36;;;;;;;16.20;13.30;;;4.40;99.90;;;;;;5052798;28;20036;-68
2022/05/02 03:36:02;;;;;;;16.35;12.52;;;4.30;99.90;;;;;;5089122;28;20154;-68
2022/05/02 03:38:28;;;;;;;14.00;11.82;;;4.40;99.90;;;;;;5067676;28;20132;-68
2022/05/02 03:40:53;;;;;;;14.98;11.25;;;4.30;99.90;;;;;;5071984;28;20044;-68
2022/05/02 03:43:19;;;;;;;13.93;11.35;;;4.30;99.90;;;;;;5089626;28;20086;-68
2022/05/02 03:45:45;;;;;;;13.38;10.77;;;4.30;99.90;;;;;;5053853;28;20051;-68
2022/05/02 03:48:10;;;;;;;13.88;11.02;;;4.30;99.90;;;;;;5067430;28;20136;-68
2022/05/02 03:50:36;;;;;;;11.02;9.85;;;4.20;99.90;;;;;;5088579;28;20111;-68
2022/05/02 03:53:02;;;;;;;12.23;10.93;;;4.20;99.90;;;;;;5088298;28;20040;-68
2022/05/02 03:55:27;;;;;;;15.50;10.95;;;4.20;99.90;;;;;;5088812;28;20043;-68
2022/05/02 03:57:53;;;;;;;14.77;11.82;;;4.10;99.90;;;;;;5089877;28;20417;-68
2022/05/02 04:00:19;;;;;;;14.35;12.40;;;4.10;99.90;;;;;;5068574;28;20055;-68
2022/05/02 04:02:45;;;;;;;14.45;11.73;;;4.00;99.90;;;;;;5086248;28;20036;-68
2022/05/02 04:05:10;;;;;;;13.80;11.75;;;4.00;99.90;;;;;;5072415;28;20125;-68
2022/05/02 04:07:36;;;;;;;13.07;11.75;;;4.00;99.90;;;;;;5073968;28;20040;-68
2022/05/02 04:10:03;;;;;;;13.43;10.98;;;4.00;99.90;;;;;;5092141;28;20048;-68
2022/05/02 04:12:39;;;;;;;13.13;11.20;;;4.00;99.90;;;;;;5091169;28;20074;-68
2022/05/02 04:15:06;;;;;;;13.82;11.52;;;4.00;99.90;;;;;;5059985;28;20127;-68
2022/05/02 04:17:33;;;;;;;12.73;11.02;;;3.90;99.90;;;;;;5074986;28;20047;-68
2022/05/02 04:19:58;;;;;;;12.95;11.65;;;3.90;99.90;;;;;;5071036;28;20047;-68
2022/05/02 04:22:24;;;;;;;15.48;11.10;;;3.90;99.90;;;;;;5074346;28;20136;-68
2022/05/02 04:24:50;;;;;;;14.05;10.90;;;3.90;99.90;;;;;;5090883;28;20036;-68
2022/05/02 04:27:15;;;;;;;12.65;10.63;;;3.90;99.90;;;;;;5074680;28;20468;-68
2022/05/02 04:29:41;;;;;;;13.75;11.60;;;3.90;99.90;;;;;;5091999;28;20491;-68
2022/05/02 04:32:07;;;;;;;14.02;11.18;;;3.90;99.90;;;;;;5091702;28;20028;-68
2022/05/02 04:34:33;;;;;;;13.30;11.32;;;3.80;99.90;;;;;;5072338;28;20055;-68
2022/05/02 04:36:58;;;;;;;15.48;11.27;;;3.90;99.90;;;;;;5092545;28;20093;-68
2022/05/02 04:39:24;;;;;;;12.68;11.30;;;3.90;99.90;;;;;;5070553;28;20036;-68
2022/05/02 04:41:49;;;;;;;12.68;11.35;;;3.90;99.90;;;;;;5057499;28;20044;-68
2022/05/02 04:44:15;;;;;;;14.45;11.80;;;3.90;99.90;;;;;;5092084;28;20040;-68
2022/05/02 04:46:41;;;;;;;13.63;12.10;;;4.00;99.90;;;;;;5092007;28;20054;-67
2022/05/02 04:49:06;;;;;;;16.95;14.38;;;4.00;99.90;;;;;;5072417;28;20195;-68
2022/05/02 04:51:32;;;;;;;16.60;14.07;;;4.10;99.90;;;;;;5091425;28;20040;-68
2022/05/02 04:53:58;;;;;;;17.02;13.75;;;4.10;99.90;;;;;;5071630;28;20149;-68
2022/05/02 04:56:24;;;;;;;16.00;14.30;;;4.30;99.90;;;;;;5074503;28;20381;-69
2022/05/02 04:58:50;;;;;;;15.38;12.93;;;4.30;99.90;;;;;;5090978;28;20052;-68
2022/05/02 05:01:15;;;;;;;17.50;13.65;;;4.40;99.90;;;;;;5092073;28;20456;-67
2022/05/02 05:03:41;;;;;;;18.60;15.68;;;4.50;99.90;;;;;;5089869;28;20039;-68
2022/05/02 05:06:07;;;;;;;19.40;15.85;;;4.70;99.90;;;;;;5091327;28;20122;-68
2022/05/02 05:08:33;;;;;;;18.80;15.90;;;4.80;99.90;;;;;;5091002;28;20040;-68
2022/05/02 05:11:17;;;;;;;18.77;15.15;;;5.00;99.90;;;;;;5073246;28;20563;-67
2022/05/02 05:17:17;;;;;;;18.23;15.73;;;5.40;99.90;;;;;;5069994;28;20413;-68
2022/05/02 05:20:05;;;;;;;18.37;16.30;;;5.60;99.90;;;;;;5090642;28;20464;-68
2022/05/02 05:23:00;;;;;;;18.33;14.00;;;5.70;99.90;;;;;;5092027;28;20435;-67
2022/05/02 05:25:38;;;;;;;16.08;14.13;;;5.90;99.90;;;;;;5072435;28;20040;-68
2022/05/02 05:28:26;;;;;;;16.02;14.38;;;5.90;99.90;;;;;;5087912;28;20063;-68
2022/05/02 05:31:04;;;;;;;16.85;15.05;;;6.10;99.90;;;;;;5073237;28;20052;-68
2022/05/02 05:34:03;;;;;;;16.88;14.05;;;6.30;99.90;;;;;;5091303;28;20028;-68
2022/05/02 05:37:10;;;;;;;14.10;12.73;;;6.50;99.90;;;;;;5086387;28;20066;-67
2022/05/02 05:39:53;;;;;;;14.52;12.00;;;6.60;99.90;;;;;;5065207;28;20151;-67
2022/05/02 05:42:53;;;;;;;15.75;12.50;;;6.70;99.90;;;;;;5090869;28;20075;-67
2022/05/02 05:45:24;;;;;;;14.50;12.98;;;6.80;99.90;;;;;;5071633;28;20127;-68
2022/05/02 05:48:09;;;;;;;14.50;13.00;;;7.00;99.90;;;;;;5090293;28;20173;-67
2022/05/02 05:50:47;;;;;;;15.63;12.45;;;7.20;99.90;;;;;;5072527;28;20028;-68
2022/05/02 05:53:36;;;;;;;14.95;12.32;;;7.30;99.90;;;;;;5072985;28;20146;-68
2022/05/02 05:56:36;;;;;;;13.35;11.95;;;7.40;99.90;;;;;;5091813;28;20047;-68
2022/05/02 05:59:10;;;;;;;13.43;12.05;;;7.60;99.90;;;;;;5055460;28;20491;-68
2022/05/02 06:01:36;;;;;;;13.10;11.73;;;7.70;99.90;;;;;;5053012;28;20182;-68
2022/05/02 06:04:07;;;;;;;14.27;11.73;;;7.80;99.90;;;;;;5073241;28;20052;-68
2022/05/02 06:06:35;;;;;;;12.98;11.63;;;7.80;99.90;;;;;;5068937;28;20670;-68
2022/05/02 06:09:02;;;;;;;14.65;11.98;;;7.90;99.90;;;;;;5054058;28;20040;-68
2022/05/02 06:11:29;;;;;;;16.73;11.65;;;8.00;99.90;;;;;;5087361;28;20036;-68
2022/05/02 06:13:58;;;;;;;13.55;11.10;;;8.10;99.90;;;;;;5069963;28;20101;-68
2022/05/02 06:19:16;;;;;;;12.57;11.32;;;8.30;99.90;;;;;;5087270;28;20051;-68
2022/05/02 06:21:46;;;;;;;12.70;11.40;;;8.50;99.90;;;;;;5089468;28;20079;-68
2022/05/02 06:24:13;;;;;;;11.82;10.63;;;8.60;99.90;;;;;;5071229;28;20134;-68
2022/05/02 06:26:40;;;;;;;12.73;11.23;;;8.80;99.90;;;;;;5066999;28;20921;-69
2022/05/02 06:29:11;;;;;;;12.93;11.50;;;8.90;99.90;;;;;;5070173;28;20044;-69
2022/05/02 06:31:40;;;;;;;12.73;11.07;;;9.00;99.90;;;;;;5068447;28;20078;-69
2022/05/02 06:34:07;;;;;;;14.52;10.68;;;9.10;99.90;;;;;;5088197;28;20042;-69
2022/05/02 06:36:51;;;;;;;14.63;10.95;;;9.30;99.90;;;;;;5088356;28;20080;-69
2022/05/02 06:39:41;;;;;;;12.80;10.13;;;9.40;99.90;;;;;;5089811;28;20035;-68
2022/05/02 06:42:39;;;;;;;11.40;10.30;;;9.50;99.90;;;;;;5085482;28;20044;-68
2022/05/02 06:45:32;;;;;;;12.68;10.23;;;9.60;99.90;;;;;;5070953;28;20079;-68
2022/05/02 06:48:07;;;;;;;11.30;10.13;;;9.80;99.90;;;;;;5068940;28;20035;-68
2022/05/02 06:50:35;;;;;;;12.27;10.00;;;9.80;99.90;;;;;;5069853;28;20028;-68
2022/05/02 06:53:04;;;;;;;13.65;10.32;;;9.90;99.90;;;;;;5063074;28;20204;-69
2022/05/02 06:55:58;;;;;;;13.02;10.93;;;10.00;99.90;;;;;;5066732;28;20403;-69
2022/05/02 06:59:05;;;;;;;15.15;10.77;;;10.20;99.90;;;;;;5062033;28;20044;-69
2022/05/02 07:01:52;;;;;;;10.88;9.77;;;10.40;99.90;;;;;;5070392;28;20055;-69
2022/05/02 07:04:50;;;;;;;12.10;10.48;;;10.60;99.90;;;;;;5084239;28;20036;-69
2022/05/02 07:07:36;;;;;;;10.93;9.43;;;10.80;99.90;;;;;;5063017;28;20105;-69
2022/05/02 07:10:08;;;;;;;13.55;9.63;;;11.30;99.90;;;;;;5088089;28;20139;-69
2022/05/02 07:12:57;;;;;;;12.52;9.75;;;11.70;99.90;;;;;;5051331;28;20131;-69
2022/05/02 07:15:37;;;;;;;9.35;8.40;;;11.90;99.90;;;;;;5089028;28;20169;-69
2022/05/02 07:18:06;;;;;;;14.60;9.70;;;12.00;99.90;;;;;;5067781;28;20044;-69
2022/05/02 07:21:13;;;;;;;10.73;9.55;;;12.20;99.70;;;;;;5071706;28;20040;-69
2022/05/02 07:23:51;;;;;;;10.15;9.00;;;12.60;97.40;;;;;;5086515;28;20248;-68
2022/05/02 07:26:20;;;;;;;13.73;8.88;;;12.80;97.20;;;;;;5069456;28;20499;-69
2022/05/02 07:28:50;;;;;;;9.95;8.45;;;13.50;97.40;;;;;;5083265;28;20062;-69
2022/05/02 07:31:21;;;;;;;9.63;8.70;;;14.20;96.80;;;;;;5088757;28;20044;-69
2022/05/02 07:33:52;;;;;;;10.00;8.10;;;14.60;95.10;;;;;;5070513;28;20055;-69
2022/05/02 07:36:22;;;;;;;8.70;7.88;;;14.60;94.10;;;;;;5069793;28;20054;-67
2022/05/02 07:38:56;;;;;;;9.55;8.30;;;15.00;93.60;;;;;;5070821;28;20549;-67
2022/05/02 07:41:26;;;;;;;10.13;8.98;;;15.30;92.50;;;;;;5069536;28;20052;-68
2022/05/02 07:44:13;;;;;;;8.50;7.47;;;15.70;90.40;;;;;;5065055;28;20040;-67
2022/05/02 07:46:42;;;;;;;8.25;7.45;;;16.00;87.80;;;;;;5090531;28;20404;-68
2022/05/02 07:49:09;;;;;;;10.02;7.82;;;16.10;88.30;;;;;;5070313;28;20040;-68
2022/05/02 07:51:47;;;;;;;10.05;7.60;;;16.20;82.10;;;;;;5090541;28;20445;-67
2022/05/02 07:54:16;;;;;;;10.35;9.15;;;16.60;79.50;;;;;;5067626;28;20057;-67
2022/05/02 07:56:42;;;;;;;10.00;7.22;;;16.90;81.60;;;;;;5088066;28;20670;-68
2022/05/02 07:59:10;;;;;;;8.75;6.78;;;17.20;80.30;;;;;;5070770;28;20102;-67
2022/05/02 08:01:35;;;;;;;7.78;7.00;;;17.00;76.50;;;;;;5068124;28;20052;-68
2022/05/02 08:04:01;;;;;;;7.68;6.50;;;16.80;77.60;;;;;;5070535;28;20043;-69
2022/05/02 08:06:48;;;;;;;6.55;5.57;;;16.90;77.80;;;;;;5089296;28;20063;-69
2022/05/02 08:09:32;;;;;;;7.97;5.63;;;17.10;73.90;;;;;;5086255;28;20036;-68
2022/05/02 08:12:12;;;;;;;7.15;6.40;;;17.70;73.70;;;;;;5088191;28;20039;-68
2022/05/02 08:15:13;;;;;;;7.55;6.53;;;18.40;67.70;;;;;;5070606;28;20079;-69
2022/05/02 08:17:54;;;;;;;8.80;5.97;;;18.70;66.80;;;;;;5081966;28;20080;-69
2022/05/02 08:20:42;;;;;;;6.68;5.72;;;19.10;67.40;;;;;;5088774;28;20067;-70
2022/05/02 08:27:34;;;;;;;6.55;5.90;;;19.60;62.70;;;;;;5070416;28;20045;-69
2022/05/02 08:29:41;;;;;;;6.47;5.85;;;19.60;60.20;;;;;;5060034;28;20079;-69
2022/05/02 08:32:41;;;;;;;7.00;5.82;;;19.90;59.90;;;;;;5089368;28;20074;-70
2022/05/02 08:35:17;;;;;;;8.23;5.97;;;20.00;59.20;;;;;;5050859;28;20122;-70
2022/05/02 08:38:07;;;;;;;7.95;6.53;;;19.70;55.00;;;;;;5087350;28;20032;-69
2022/05/02 08:41:08;;;;;;;6.47;5.72;;;19.50;58.40;;;;;;5069609;28;20047;-69
2022/05/02 08:43:58;;;;;;;7.07;6.38;;;19.20;57.60;;;;;;5088731;28;20048;-69
2022/05/02 08:46:50;;;;;;;7.88;6.15;;;19.60;56.30;;;;;;5073666;28;20138;-70
2022/05/02 08:49:58;;;;;;;9.65;5.85;;;19.90;53.00;;;;;;5087836;28;20071;-69
2022/05/02 08:53:01;;;;;;;6.25;5.65;;;20.20;55.60;;;;;;5071766;28;20051;-69
2022/05/02 08:55:55;;;;;;;7.40;6.20;;;20.50;53.00;;;;;;5092507;28;20044;-69
2022/05/02 08:58:51;;;;;;;9.18;5.95;;;20.40;50.80;;;;;;5092492;28;20050;-69
2022/05/02 09:01:29;;;;;;;6.85;5.90;;;20.00;51.30;;;;;;5072669;28;20040;-69
2022/05/02 09:04:22;;;;;;;6.93;5.40;;;18.90;52.40;;;;;;5091978;28;20170;-69
2022/05/02 09:07:35;;;;;;;6.50;5.65;;;18.40;54.90;;;;;;5091389;28;20093;-69
2022/05/02 09:10:10;;;;;;;6.50;5.90;;;17.90;53.10;;;;;;4987807;28;20050;-69
2022/05/02 09:12:47;;;;;;;5.68;5.05;;;17.60;53.20;;;;;;4988863;28;20042;-70
2022/05/02 09:15:58;;;;;;;5.93;5.32;;;17.80;53.90;;;;;;5028522;28;20056;-70
2022/05/02 09:18:46;;;;;;;6.20;5.47;;;18.70;52.30;;;;;;5060087;28;20147;-69
2022/05/02 09:21:46;;;;;;;5.95;5.43;;;19.40;51.90;;;;;;5074547;28;20075;-69
2022/05/02 09:24:14;;;;;;;5.35;4.10;;;19.80;51.00;;;;;;5074919;28;20056;-69
2022/05/02 09:27:04;;;;;;;8.07;6.32;;;20.10;51.60;;;;;;5091987;28;20085;-69
2022/05/02 09:29:55;;;;;;;6.30;5.70;;;20.30;50.60;;;;;;5091945;28;20044;-70
2022/05/02 09:32:45;;;;;;;6.15;5.47;;;20.30;49.60;;;;;;5074670;28;20396;-69
2022/05/02 09:35:30;;;;;;;5.70;5.07;;;20.60;49.40;;;;;;5072022;28;20051;-70
2022/05/02 09:38:10;;;;;;;5.25;4.32;;;20.30;47.60;;;;;;5073277;28;20082;-70
2022/05/02 09:40:41;;;;;;;5.38;3.92;;;19.50;48.70;;;;;;5092556;28;20044;-70
2022/05/02 09:50:14;;;;;;;8.00;5.32;;;18.00;50.70;;;;;;5073309;28;20071;-70
2022/05/02 09:53:21;;;;;;;7.30;5.20;;;18.20;52.20;;;;;;5089448;28;20054;-70
2022/05/02 09:56:41;;;;;;;5.43;4.93;;;18.80;50.60;;;;;;5087403;28;20462;-69
2022/05/02 09:59:28;;;;;;;6.13;5.63;;;19.20;50.20;;;;;;5072063;28;20522;-69
2022/05/02 10:02:21;;;;;;;5.53;5.03;;;19.10;50.10;;;;;;5090518;28;20462;-69
2022/05/02 10:05:07;;;;;;;5.22;4.72;;;18.90;51.40;;;;;;5089160;28;20039;-70
2022/05/02 10:08:04;;;;;;;6.35;5.40;;;19.10;48.60;;;;;;5087482;28;20043;-72
2022/05/02 10:10:39;;;;;;;6.32;5.13;;;19.30;50.40;;;;;;5091531;28;20067;-72
2022/05/02 10:13:32;;;;;;;6.00;4.93;;;19.60;50.60;;;;;;5072988;28;20092;-71
2022/05/02 10:16:15;;;;;;;5.95;5.00;;;19.90;49.50;;;;;;5073116;28;20040;-72
2022/05/02 10:18:54;;;;;;;5.68;4.68;;;20.30;49.90;;;;;;5063652;28;20728;-72
2022/05/02 10:21:20;;;;;;;8.10;4.72;;;20.50;49.60;;;;;;5072865;28;20036;-72
2022/05/02 10:24:16;;;;;;;8.25;5.10;;;20.80;48.40;;;;;;5072492;28;20079;-72
2022/05/02 10:27:03;;;;;;;7.10;4.97;;;21.20;48.20;;;;;;5090693;28;20044;-72
2022/05/02 10:30:05;;;;;;;5.88;4.45;;;21.10;46.20;;;;;;5052678;28;20052;-72
2022/05/02 10:32:31;;;;;;;4.50;4.10;;;21.10;45.30;;;;;;5088269;28;20042;-72
2022/05/02 10:34:59;;;;;;;6.95;4.65;;;21.20;47.00;;;;;;5090539;28;20387;-72
2022/05/02 10:37:33;;;;;;;4.72;4.32;;;21.30;45.90;;;;;;5092832;28;20036;-70
2022/05/02 10:40:13;;;;;;;5.60;4.68;;;21.20;45.10;;;;;;5072877;28;20032;-70
2022/05/02 10:42:46;;;;;;;6.32;4.40;;;21.20;45.00;;;;;;5090588;28;20080;-71
2022/05/02 10:45:14;;;;;;;5.80;4.32;;;21.30;44.80;;;;;;5072727;28;20051;-70
2022/05/02 10:47:43;;;;;;;4.60;4.20;;;21.30;44.20;;;;;;5071805;28;20052;-70
2022/05/02 10:50:21;;;;;;;6.03;4.15;;;21.50;44.20;;;;;;5072431;28;20412;-71
2022/05/02 10:52:46;;;;;;;4.40;4.00;;;21.40;43.20;;;;;;5072257;28;20427;-71
2022/05/02 10:55:19;;;;;;;6.53;5.00;;;21.30;44.20;;;;;;5070503;28;20044;-72
2022/05/02 10:57:54;;;;;;;5.80;4.43;;;21.20;43.40;;;;;;5071447;28;20054;-72
2022/05/02 11:00:21;;;;;;;12.02;10.77;;;20.60;44.90;;;;;;5071317;28;20373;-70
2022/05/02 11:03:08;;;;;;;13.18;10.48;;;20.80;44.70;;;;;;5069331;28;20101;-71
2022/05/02 11:05:46;;;;;;;5.20;4.70;;;20.80;44.30;;;;;;5090119;28;20040;-71
2022/05/02 11:08:19;;;;;;;4.32;3.78;;;20.90;45.60;;;;;;5070893;28;20090;-71
2022/05/02 11:10:56;;;;;;;5.47;4.00;;;21.00;45.70;;;;;;5088596;28;20043;-71
2022/05/02 11:13:45;;;;;;;4.63;4.10;;;21.30;44.30;;;;;;5067063;28;20044;-72
2022/05/02 11:16:39;;;;;;;5.43;4.18;;;21.70;45.90;;;;;;5070526;28;20048;-72
2022/05/02 11:22:13;;;;;;;4.80;4.20;;;22.20;42.70;;;;;;5071729;28;19923;-72
2022/05/02 11:25:10;;;;;;;5.97;5.13;;;22.10;42.40;;;;;;5052510;28;20044;-71
2022/05/02 11:27:43;;;;;;;6.68;4.80;;;22.00;41.20;;;;;;5061517;28;20098;-70
2022/05/02 11:30:11;;;;;;;5.40;4.57;;;21.80;42.90;;;;;;5070166;28;20050;-68
2022/05/02 11:32:39;;;;;;;5.28;4.65;;;22.10;43.10;;;;;;5071495;28;20063;-69
2022/05/02 11:35:12;;;;;;;6.10;4.50;;;22.30;42.10;;;;;;5085243;28;20035;-69
2022/05/02 11:37:50;;;;;;;5.60;4.53;;;22.20;41.20;;;;;;5089129;28;20484;-69
2022/05/02 11:40:17;;;;;;;7.30;4.60;;;22.10;42.60;;;;;;5089625;28;20646;-69
2022/05/02 11:42:45;;;;;;;6.50;4.40;;;21.90;42.50;;;;;;5085762;28;20039;-69
2022/05/02 11:45:14;;;;;;;5.18;4.28;;;21.40;42.80;;;;;;5071443;28;20467;-69
2022/05/02 11:47:54;;;;;;;6.63;4.47;;;21.30;43.70;;;;;;5085268;28;20067;-69
2022/05/02 11:50:24;;;;;;;9.38;4.75;;;21.70;43.40;;;;;;5088423;28;20040;-69
2022/05/02 11:53:00;;;;;;;5.22;4.72;;;22.10;43.90;;;;;;5069874;28;20044;-69
2022/05/02 11:55:33;;;;;;;5.65;4.25;;;22.10;41.10;;;;;;5087639;28;20056;-69
2022/05/02 11:58:24;;;;;;;6.50;4.80;;;21.50;42.90;;;;;;5088553;28;20471;-69
2022/05/02 12:01:02;;;;;;;4.53;4.13;;;20.90;43.40;;;;;;5071958;28;20036;-69
2022/05/02 12:03:50;;;;;;;9.32;5.10;;;21.40;44.70;;;;;;5086738;28;20039;-69
2022/05/02 12:06:16;;;;;;;6.47;4.00;;;22.10;44.50;;;;;;5070301;28;20032;-69
2022/05/02 12:08:46;;;;;;;4.80;4.10;;;22.80;43.10;;;;;;5088422;28;20124;-68
2022/05/02 12:11:14;;;;;;;5.25;3.90;;;23.30;41.00;;;;;;5089702;28;20054;-70
2022/05/02 12:13:44;;;;;;;4.75;4.32;;;23.40;40.80;;;;;;5087731;28;20046;-70
2022/05/02 12:16:12;;;;;;;6.10;4.53;;;23.40;40.10;;;;;;5065343;28;20112;-69
2022/05/02 12:18:49;;;;;;;5.95;4.20;;;23.00;38.90;;;;;;5070418;28;20581;-69
2022/05/02 12:21:19;;;;;;;5.35;3.83;;;22.80;39.20;;;;;;5087768;28;20036;-69
2022/05/02 12:23:46;;;;;;;4.60;3.15;;;22.40;39.70;;;;;;5069037;28;20058;-69
2022/05/02 12:26:18;;;;;;;4.93;4.15;;;22.00;40.50;;;;;;5055385;28;20055;-68
2022/05/02 12:28:51;;;;;;;6.00;4.10;;;22.10;39.60;;;;;;5068387;28;20113;-69
2022/05/02 12:31:28;;;;;;;4.53;4.10;;;22.20;40.40;;;;;;5074462;28;20111;-70
2022/05/02 12:34:02;;;;;;;3.92;3.22;;;22.30;41.40;;;;;;5092417;28;20028;-69
2022/05/02 12:36:55;;;;;;;5.10;3.13;;;22.00;39.90;;;;;;5092369;28;20050;-68
2022/05/02 12:39:26;;;;;;;3.97;3.08;;;22.00;38.30;;;;;;5087223;28;20036;-72
2022/05/02 12:42:18;;;;;;;3.85;3.45;;;22.30;39.60;;;;;;5070323;28;20040;-72
2022/05/02 12:45:03;;;;;;;3.22;2.75;;;22.30;38.60;;;;;;5071284;28;20043;-71
2022/05/02 12:47:34;;;;;;;4.05;2.88;;;22.20;38.90;;;;;;5091290;28;20165;-69
2022/05/02 12:50:11;;;;;;;5.00;3.33;;;22.50;40.00;;;;;;5073226;28;20040;-69
2022/05/02 12:52:46;;;;;;;5.57;3.45;;;22.40;37.90;;;;;;5073369;28;20520;-69
2022/05/02 12:55:14;;;;;;;4.03;3.00;;;22.40;39.30;;;;;;5090307;28;20101;-69
2022/05/02 13:00:40;;;;;;;4.25;2.92;;;22.70;39.30;;;;;;5073054;28;20086;-69
2022/05/02 13:03:17;;;;;;;3.95;3.55;;;22.80;40.00;;;;;;5088511;28;20112;-69
2022/05/02 13:05:45;;;;;;;5.63;3.67;;;22.50;38.80;;;;;;5092394;28;20075;-69
2022/05/02 13:08:19;;;;;;;5.68;3.95;;;22.40;39.70;;;;;;5092345;28;20032;-69
2022/05/02 13:10:50;;;;;;;4.70;3.90;;;22.40;40.40;;;;;;5074784;28;20040;-69
2022/05/02 13:13:19;;;;;;;5.07;3.47;;;22.60;40.20;;;;;;5072715;28;20063;-69
2022/05/02 13:15:46;;;;;;;5.07;4.05;;;22.80;40.30;;;;;;5072197;28;20063;-69
2022/05/02 13:18:15;;;;;;;5.20;4.07;;;22.80;40.10;;;;;;5087290;28;20557;-68
2022/05/02 13:20:44;;;;;;;5.95;4.28;;;22.60;40.60;;;;;;5074232;28;20118;-68
2022/05/02 13:23:15;;;;;;;6.40;5.05;;;22.20;40.10;;;;;;5091770;28;20445;-68
2022/05/02 13:26:03;;;;;;;6.82;4.68;;;21.60;40.10;;;;;;5071733;28;20515;-69
2022/05/02 13:28:53;;;;;;;6.60;4.43;;;21.10;41.40;;;;;;5086882;28;20048;-69
2022/05/02 13:31:39;;;;;;;5.55;4.65;;;20.90;42.60;;;;;;5073500;28;20048;-69
2022/05/02 13:34:06;;;;;;;5.18;3.67;;;20.90;41.60;;;;;;5090719;28;20032;-68
2022/05/02 13:36:43;;;;;;;6.13;4.13;;;21.00;42.50;;;;;;5092273;28;20120;-69
2022/05/02 13:39:20;;;;;;;7.22;3.80;;;21.10;41.40;;;;;;5088691;28;20032;-69
2022/05/02 13:42:01;;;;;;;4.85;3.35;;;20.70;41.10;;;;;;5070189;28;20105;-68
2022/05/02 13:44:42;;;;;;;4.07;3.70;;;20.70;41.70;;;;;;5088848;28;20067;-68
2022/05/02 13:47:12;;;;;;;5.63;3.60;;;20.80;41.70;;;;;;5092209;28;20040;-68
2022/05/02 13:50:05;;;;;;;13.07;4.30;;;20.30;42.30;;;;;;5090251;28;20052;-68